createdAt,value
2023-05-09T00:01:21.504Z,1008.73
2023-05-09T00:04:21.541Z,1008.72
2023-05-09T00:07:21.515Z,1008.72
2023-05-09T00:10:21.502Z,1008.7
2023-05-09T00:13:21.550Z,1008.68
2023-05-09T00:16:21.518Z,1008.7
2023-05-09T00:19:21.493Z,1008.67
2023-05-09T00:22:21.496Z,1008.6
2023-05-09T00:25:21.605Z,1008.59
2023-05-09T00:28:21.493Z,1008.52
2023-05-09T00:31:21.493Z,1008.52
2023-05-09T00:34:21.542Z,1008.48
2023-05-09T00:37:21.492Z,1008.47
2023-05-09T00:40:21.499Z,1008.46
2023-05-09T00:43:21.509Z,1008.4
2023-05-09T00:46:21.502Z,1008.32
2023-05-09T00:49:26.036Z,1008.3
2023-05-09T00:52:21.488Z,1008.29
2023-05-09T00:55:21.503Z,1008.25
2023-05-09T00:58:21.496Z,1008.23
2023-05-09T01:01:21.529Z,1008.19
2023-05-09T01:04:21.492Z,1008.2
2023-05-09T01:07:21.593Z,1008.15
2023-05-09T01:10:21.827Z,1008.08
2023-05-09T01:13:21.560Z,1008.05
2023-05-09T01:16:21.568Z,1008.13
2023-05-09T01:19:21.498Z,1008.04
2023-05-09T01:22:21.495Z,1008.05
2023-05-09T01:25:21.489Z,1008.05
2023-05-09T01:28:21.483Z,1007.97
2023-05-09T01:31:26.529Z,1007.96
2023-05-09T01:34:21.494Z,1007.96
2023-05-09T01:37:21.491Z,1007.96
2023-05-09T01:40:21.562Z,1007.96
2023-05-09T01:43:21.502Z,1007.97
2023-05-09T01:46:21.503Z,1007.88
2023-05-09T01:49:21.513Z,1007.86
2023-05-09T01:52:21.478Z,1007.82
2023-05-09T01:55:21.485Z,1007.71
2023-05-09T01:58:21.483Z,1007.7
2023-05-09T02:01:21.526Z,1007.76
2023-05-09T02:04:21.484Z,1007.74
2023-05-09T02:07:21.473Z,1007.7
2023-05-09T02:10:21.504Z,1007.6
2023-05-09T02:13:26.516Z,1007.6
2023-05-09T02:16:21.496Z,1007.57
2023-05-09T02:19:21.476Z,1007.61
2023-05-09T02:22:21.476Z,1007.59
2023-05-09T02:25:21.481Z,1007.65
2023-05-09T02:28:21.477Z,1007.63
2023-05-09T02:31:21.527Z,1007.67
2023-05-09T02:34:21.461Z,1007.69
2023-05-09T02:37:21.474Z,1007.66
2023-05-09T02:40:21.470Z,1007.6
2023-05-09T02:43:21.469Z,1007.56
2023-05-09T02:46:21.503Z,1007.54
2023-05-09T02:49:31.307Z,1007.5
2023-05-09T02:52:21.465Z,1007.49
2023-05-09T02:55:26.478Z,1007.45
2023-05-09T02:58:21.461Z,1007.43
2023-05-09T03:01:21.482Z,1007.43
2023-05-09T03:04:21.463Z,1007.38
2023-05-09T03:07:21.466Z,1007.4
2023-05-09T03:10:21.467Z,1007.4
2023-05-09T03:13:21.544Z,1007.42
2023-05-09T03:16:21.520Z,1007.46
2023-05-09T03:19:21.476Z,1007.42
2023-05-09T03:22:21.484Z,1007.39
2023-05-09T03:25:21.469Z,1007.35
2023-05-09T03:28:21.466Z,1007.32
2023-05-09T03:31:21.498Z,1007.3
2023-05-09T03:34:21.474Z,1007.25
2023-05-09T03:37:27.152Z,1007.25
2023-05-09T03:40:21.470Z,1007.23
2023-05-09T03:43:21.470Z,1007.19
2023-05-09T03:46:21.523Z,1007.2
2023-05-09T03:49:21.459Z,1007.19
2023-05-09T03:52:21.458Z,1007.2
2023-05-09T03:55:21.531Z,1007.18
2023-05-09T03:58:21.527Z,1007.15
2023-05-09T04:01:21.528Z,1007.09
2023-05-09T04:04:21.542Z,1007.06
2023-05-09T04:07:21.520Z,1007.07
2023-05-09T04:10:21.526Z,1007.03
2023-05-09T04:13:21.532Z,1007.02
2023-05-09T04:16:21.549Z,1007
2023-05-09T04:19:21.534Z,1007.05
2023-05-09T04:22:21.520Z,1007.13
2023-05-09T04:25:21.517Z,1007.1
2023-05-09T04:28:21.520Z,1007.11
2023-05-09T04:31:21.585Z,1007.07
2023-05-09T04:34:21.516Z,1007.06
2023-05-09T04:37:21.516Z,1007.06
2023-05-09T04:40:21.519Z,1007.14
2023-05-09T04:43:21.512Z,1007.1
2023-05-09T04:46:23.115Z,1007.07
2023-05-09T04:49:21.512Z,1007.02
2023-05-09T04:52:21.508Z,1006.99
2023-05-09T04:55:21.506Z,1006.9
2023-05-09T04:58:21.510Z,1006.86
2023-05-09T05:01:21.527Z,1006.85
2023-05-09T05:04:21.522Z,1006.81
2023-05-09T05:07:21.507Z,1006.81
2023-05-09T05:10:21.509Z,1006.77
2023-05-09T05:13:21.605Z,1006.76
2023-05-09T05:16:21.508Z,1006.71
2023-05-09T05:19:21.502Z,1006.71
2023-05-09T05:22:21.584Z,1006.69
2023-05-09T05:25:21.543Z,1006.69
2023-05-09T05:28:21.548Z,1006.68
2023-05-09T05:31:21.544Z,1006.64
2023-05-09T05:34:21.542Z,1006.67
2023-05-09T05:37:21.546Z,1006.73
2023-05-09T05:40:21.546Z,1006.71
2023-05-09T05:43:21.528Z,1006.65
2023-05-09T05:46:21.596Z,1006.62
2023-05-09T05:49:21.540Z,1006.58
2023-05-09T05:52:21.534Z,1006.57
2023-05-09T05:55:21.801Z,1006.61
2023-05-09T05:58:21.747Z,1006.59
2023-05-09T06:01:21.717Z,1006.61
2023-05-09T06:04:21.883Z,1006.58
2023-05-09T06:07:21.721Z,1006.53
2023-05-09T06:10:21.722Z,1006.53
2023-05-09T06:13:21.792Z,1006.51
2023-05-09T06:16:21.735Z,1006.52
2023-05-09T06:19:21.712Z,1006.53
2023-05-09T06:22:21.711Z,1006.49
2023-05-09T06:25:21.771Z,1006.47
2023-05-09T06:28:21.712Z,1006.4
2023-05-09T06:31:22.007Z,1006.39
2023-05-09T06:34:21.712Z,1006.38
2023-05-09T06:37:21.711Z,1006.32
2023-05-09T06:40:21.715Z,1006.26
2023-05-09T06:43:21.713Z,1006.21
2023-05-09T06:46:21.758Z,1006.22
2023-05-09T06:49:21.713Z,1006.17
2023-05-09T06:52:21.703Z,1006.11
2023-05-09T06:55:21.719Z,1006.08
2023-05-09T06:58:26.722Z,1006.08
2023-05-09T07:01:21.726Z,1006.12
2023-05-09T07:04:21.705Z,1006.05
2023-05-09T07:07:21.712Z,1006.04
2023-05-09T07:10:21.700Z,1006.04
2023-05-09T07:13:21.742Z,1006
2023-05-09T07:16:21.721Z,1006
2023-05-09T07:19:21.698Z,1005.9
2023-05-09T07:22:21.731Z,1005.89
2023-05-09T07:25:21.703Z,1005.83
2023-05-09T07:28:21.704Z,1005.75
2023-05-09T07:31:21.713Z,1005.71
2023-05-09T07:34:21.698Z,1005.71
2023-05-09T07:37:21.690Z,1005.67
2023-05-09T07:40:21.689Z,1005.64
2023-05-09T07:43:21.687Z,1005.63
2023-05-09T07:46:21.744Z,1005.6
2023-05-09T07:49:21.691Z,1005.56
2023-05-09T07:52:21.677Z,1005.47
2023-05-09T07:55:21.686Z,1005.47
2023-05-09T07:58:21.699Z,1005.39
2023-05-09T08:01:21.694Z,1005.41
2023-05-09T08:04:21.717Z,1005.38
2023-05-09T08:07:21.686Z,1005.45
2023-05-09T08:10:21.676Z,1005.46
2023-05-09T08:13:21.673Z,1005.36
2023-05-09T08:16:21.685Z,1005.27
2023-05-09T08:19:21.693Z,1005.24
2023-05-09T08:22:21.677Z,1005.21
2023-05-09T08:25:21.676Z,1005.15
2023-05-09T08:28:26.692Z,1005.15
2023-05-09T08:31:21.708Z,1005.19
2023-05-09T08:34:21.680Z,1005.15
2023-05-09T08:37:21.678Z,1005.13
2023-05-09T08:40:21.698Z,1005.1
2023-05-09T08:43:21.676Z,1005.02
2023-05-09T08:46:21.719Z,1004.97
2023-05-09T08:49:21.671Z,1004.88
2023-05-09T08:52:21.676Z,1004.83
2023-05-09T08:55:21.691Z,1004.83
2023-05-09T08:58:21.676Z,1004.82
2023-05-09T09:01:21.706Z,1004.78
2023-05-09T09:04:21.701Z,1004.84
2023-05-09T09:07:21.669Z,1004.82
2023-05-09T09:10:21.682Z,1004.71
2023-05-09T09:13:21.744Z,1004.69
2023-05-09T09:16:21.675Z,1004.63
2023-05-09T09:19:21.664Z,1004.61
2023-05-09T09:22:21.665Z,1004.54
2023-05-09T09:25:21.659Z,1004.53
2023-05-09T09:28:21.654Z,1004.55
2023-05-09T09:31:21.701Z,1004.5
2023-05-09T09:34:21.670Z,1004.48
2023-05-09T09:37:21.657Z,1004.42
2023-05-09T09:40:21.645Z,1004.37
2023-05-09T09:43:21.656Z,1004.42
2023-05-09T09:46:21.688Z,1004.4
2023-05-09T09:49:21.659Z,1004.35
2023-05-09T09:52:21.647Z,1004.3
2023-05-09T09:55:21.653Z,1004.21
2023-05-09T09:58:21.661Z,1004.16
2023-05-09T10:01:21.645Z,1004.13
2023-05-09T10:04:21.662Z,1004.13
2023-05-09T10:07:21.664Z,1004.06
2023-05-09T10:10:21.689Z,1004.06
2023-05-09T10:13:21.702Z,1004.03
2023-05-09T10:16:31.865Z,1004.01
2023-05-09T10:19:21.645Z,1003.88
2023-05-09T10:22:21.649Z,1003.85
2023-05-09T10:25:21.657Z,1003.82
2023-05-09T10:28:21.641Z,1003.82
2023-05-09T10:31:21.687Z,1003.71
2023-05-09T10:34:21.659Z,1003.67
2023-05-09T10:37:21.646Z,1003.64
2023-05-09T10:40:21.642Z,1003.6
2023-05-09T10:43:21.641Z,1003.53
2023-05-09T10:46:21.664Z,1003.52
2023-05-09T10:49:21.633Z,1003.44
2023-05-09T10:52:21.637Z,1003.36
2023-05-09T10:55:21.636Z,1003.33
2023-05-09T10:58:21.642Z,1003.32
2023-05-09T11:01:21.669Z,1003.25
2023-05-09T11:04:21.633Z,1003.21
2023-05-09T11:07:21.637Z,1003.17
2023-05-09T11:10:21.642Z,1003.1
2023-05-09T11:13:21.673Z,1003.05
2023-05-09T11:16:21.675Z,1003.02
2023-05-09T11:19:21.633Z,1003
2023-05-09T11:22:21.636Z,1002.92
2023-05-09T11:25:21.628Z,1002.87
2023-05-09T11:28:21.630Z,1002.88
2023-05-09T11:31:21.643Z,1002.85
2023-05-09T11:34:21.627Z,1002.78
2023-05-09T11:37:26.639Z,1002.79
2023-05-09T11:40:21.626Z,1002.71
2023-05-09T11:43:21.614Z,1002.64
2023-05-09T11:46:21.667Z,1002.55
2023-05-09T11:49:21.637Z,1002.51
2023-05-09T11:52:21.645Z,1002.52
2023-05-09T11:55:21.631Z,1002.5
2023-05-09T11:58:21.618Z,1002.45
2023-05-09T12:01:21.639Z,1002.38
2023-05-09T12:04:21.643Z,1002.36
2023-05-09T12:07:21.625Z,1002.34
2023-05-09T12:10:21.609Z,1002.28
2023-05-09T12:13:21.661Z,1002.23
2023-05-09T12:16:21.622Z,1002.2
2023-05-09T12:19:21.612Z,1002.15
2023-05-09T12:22:21.616Z,1002.13
2023-05-09T12:25:21.807Z,1002.11
2023-05-09T12:28:21.610Z,1002.09
2023-05-09T12:31:21.638Z,1002.02
2023-05-09T12:34:21.604Z,1001.97
2023-05-09T12:37:21.609Z,1001.91
2023-05-09T12:40:21.600Z,1001.86
2023-05-09T12:43:21.596Z,1001.84
2023-05-09T12:46:21.613Z,1001.82
2023-05-09T12:49:21.606Z,1001.77
2023-05-09T12:52:21.593Z,1001.71
2023-05-09T12:55:21.613Z,1001.64
2023-05-09T12:58:21.600Z,1001.56
2023-05-09T13:01:21.640Z,1001.42
2023-05-09T13:04:21.593Z,1001.43
2023-05-09T13:07:21.604Z,1001.36
2023-05-09T13:10:21.586Z,1001.28
2023-05-09T13:13:21.683Z,1001.25
2023-05-09T13:16:21.612Z,1001.19
2023-05-09T13:19:21.587Z,1001.12
2023-05-09T13:22:21.594Z,1001.06
2023-05-09T13:25:21.585Z,1001
2023-05-09T13:28:21.586Z,1000.97
2023-05-09T13:31:21.659Z,1000.89
2023-05-09T13:34:21.591Z,1000.87
2023-05-09T13:37:21.581Z,1000.83
2023-05-09T13:40:21.611Z,1000.78
2023-05-09T13:43:21.579Z,1000.71
2023-05-09T13:46:21.593Z,1000.71
2023-05-09T13:49:21.577Z,1000.68
2023-05-09T13:52:21.579Z,1000.61
2023-05-09T13:55:21.577Z,1000.61
2023-05-09T13:58:21.588Z,1000.56
2023-05-09T14:01:21.603Z,1000.51
2023-05-09T14:04:21.574Z,1000.46
2023-05-09T14:07:21.581Z,1000.43
2023-05-09T14:10:21.646Z,1000.36
2023-05-09T14:13:21.621Z,1000.33
2023-05-09T14:16:21.595Z,1000.27
2023-05-09T14:19:21.566Z,1000.22
2023-05-09T14:22:21.576Z,1000.13
2023-05-09T14:25:21.567Z,1000.12
2023-05-09T14:28:21.561Z,1000.11
2023-05-09T14:31:21.582Z,1000.09
2023-05-09T14:34:21.563Z,1000.03
2023-05-09T14:37:21.577Z,1000
2023-05-09T14:40:21.563Z,999.97
2023-05-09T14:43:21.574Z,999.9
2023-05-09T14:46:21.591Z,999.75
2023-05-09T14:49:21.569Z,999.71
2023-05-09T14:52:21.563Z,999.69
2023-05-09T14:55:21.555Z,999.67
2023-05-09T14:58:21.570Z,999.6
2023-05-09T15:01:21.589Z,999.61
2023-05-09T15:04:21.569Z,999.59
2023-05-09T15:07:21.553Z,999.54
2023-05-09T15:10:21.555Z,999.49
2023-05-09T15:13:21.589Z,999.48
2023-05-09T15:19:21.560Z,999.51
2023-05-09T15:22:21.547Z,999.52
2023-05-09T15:25:21.544Z,999.48
2023-05-09T15:28:21.550Z,999.4
2023-05-09T15:31:21.609Z,999.36
2023-05-09T15:34:21.545Z,999.39
2023-05-09T15:37:21.548Z,999.4
2023-05-09T15:40:21.546Z,999.45
2023-05-09T15:43:21.562Z,999.56
2023-05-09T15:46:21.543Z,999.54
2023-05-09T15:49:21.535Z,999.47
2023-05-09T15:52:21.536Z,999.35
2023-05-09T15:55:21.556Z,999.27
2023-05-09T15:58:21.536Z,999.15
2023-05-09T16:01:21.579Z,999.1
2023-05-09T16:04:21.566Z,999
2023-05-09T16:07:21.548Z,998.98
2023-05-09T16:10:26.549Z,998.91
2023-05-09T16:13:21.598Z,998.9
2023-05-09T16:16:21.596Z,998.87
2023-05-09T16:19:21.544Z,998.82
2023-05-09T16:22:21.534Z,998.76
2023-05-09T16:25:21.534Z,998.71
2023-05-09T16:28:21.547Z,998.68
2023-05-09T16:31:21.565Z,998.67
2023-05-09T16:34:21.538Z,998.6
2023-05-09T16:37:21.532Z,998.54
2023-05-09T16:40:21.541Z,998.48
2023-05-09T16:43:21.528Z,998.42
2023-05-09T16:46:21.578Z,998.38
2023-05-09T16:49:21.531Z,998.41
2023-05-09T16:52:21.521Z,998.34
2023-05-09T16:55:21.528Z,998.3
2023-05-09T16:58:21.527Z,998.36
2023-05-09T17:01:21.543Z,998.32
2023-05-09T17:04:21.581Z,998.33
2023-05-09T17:07:21.531Z,998.44
2023-05-09T17:10:21.522Z,998.4
2023-05-09T17:13:21.526Z,998.45
2023-05-09T17:16:21.541Z,998.54
2023-05-09T17:19:21.519Z,998.58
2023-05-09T17:22:21.533Z,998.53
2023-05-09T17:25:21.511Z,998.51
2023-05-09T17:28:21.531Z,998.43
2023-05-09T17:31:21.523Z,998.4
2023-05-09T17:34:21.520Z,998.41
2023-05-09T17:37:21.547Z,998.32
2023-05-09T17:40:21.546Z,998.2
2023-05-09T17:43:21.515Z,998.15
2023-05-09T17:46:21.560Z,998.23
2023-05-09T17:49:21.505Z,998.2
2023-05-09T17:52:21.503Z,998.21
2023-05-09T17:55:21.509Z,998.17
2023-05-09T17:58:21.507Z,998.12
2023-05-09T18:01:21.601Z,998.01
2023-05-09T18:04:22.554Z,997.95
2023-05-09T18:07:21.510Z,997.85
2023-05-09T18:10:21.499Z,997.85
2023-05-09T18:13:21.519Z,997.89
2023-05-09T18:16:21.516Z,998.02
2023-05-09T18:19:21.498Z,998.19
2023-05-09T18:22:21.502Z,998.38
2023-05-09T18:25:21.575Z,998.55
2023-05-09T18:28:21.570Z,998.63
2023-05-09T18:31:21.558Z,998.65
2023-05-09T18:34:21.496Z,998.56
2023-05-09T18:37:21.492Z,998.49
2023-05-09T18:40:21.488Z,998.48
2023-05-09T18:43:21.491Z,998.45
2023-05-09T18:46:21.578Z,998.55
2023-05-09T18:49:21.481Z,998.61
2023-05-09T18:52:21.482Z,998.77
2023-05-09T18:55:21.480Z,998.71
2023-05-09T18:58:21.485Z,998.7
2023-05-09T19:01:21.665Z,998.67
2023-05-09T19:04:21.569Z,998.66
2023-05-09T19:07:21.483Z,998.68
2023-05-09T19:10:21.476Z,998.54
2023-05-09T19:13:21.545Z,998.46
2023-05-09T19:16:21.549Z,998.38
2023-05-09T19:19:21.476Z,998.45
2023-05-09T19:22:21.464Z,998.5
2023-05-09T19:25:21.471Z,998.49
2023-05-09T19:28:21.464Z,998.51
2023-05-09T19:31:21.511Z,998.54
2023-05-09T19:34:21.468Z,998.59
2023-05-09T19:37:21.468Z,998.64
2023-05-09T19:40:21.461Z,998.62
2023-05-09T19:43:21.462Z,998.61
2023-05-09T19:46:21.488Z,998.61
2023-05-09T19:49:21.477Z,998.64
2023-05-09T19:52:21.463Z,998.7
2023-05-09T19:55:21.460Z,998.77
2023-05-09T19:58:21.450Z,998.74
2023-05-09T20:01:21.504Z,998.69
2023-05-09T20:04:21.462Z,998.66
2023-05-09T20:07:21.496Z,998.63
2023-05-09T20:10:21.463Z,998.59
2023-05-09T20:13:21.478Z,998.58
2023-05-09T20:16:21.510Z,998.56
2023-05-09T20:19:21.488Z,998.52
2023-05-09T20:22:21.452Z,998.53
2023-05-09T20:25:21.444Z,998.47
2023-05-09T20:28:21.446Z,998.47
2023-05-09T20:31:21.489Z,998.45
2023-05-09T20:34:21.444Z,998.41
2023-05-09T20:37:21.447Z,998.4
2023-05-09T20:40:21.440Z,998.41
2023-05-09T20:43:21.434Z,998.39
2023-05-09T20:46:21.467Z,998.37
2023-05-09T20:49:21.446Z,998.36
2023-05-09T20:52:21.436Z,998.37
2023-05-09T20:55:21.438Z,998.37
2023-05-09T20:58:21.434Z,998.37
2023-05-09T21:01:21.468Z,998.37
2023-05-09T21:04:21.439Z,998.37
2023-05-09T21:07:21.432Z,998.38
2023-05-09T21:10:21.441Z,998.27
2023-05-09T21:13:21.469Z,998.27
2023-05-09T21:16:21.477Z,998.19
2023-05-09T21:19:21.445Z,998.19
2023-05-09T21:22:21.441Z,998.2
2023-05-09T21:25:21.429Z,998.18
2023-05-09T21:28:21.431Z,998.12
2023-05-09T21:31:21.479Z,998.1
2023-05-09T21:34:21.423Z,998.13
2023-05-09T21:37:21.423Z,998.08
2023-05-09T21:40:21.414Z,998.05
2023-05-09T21:43:21.425Z,998.06
2023-05-09T21:46:21.484Z,998.04
2023-05-09T21:49:21.784Z,998
2023-05-09T21:52:21.420Z,998.03
2023-05-09T21:55:21.415Z,998
2023-05-09T21:58:21.415Z,998.01
2023-05-09T22:01:21.455Z,997.97
2023-05-09T22:04:21.421Z,997.97
2023-05-09T22:07:21.451Z,997.97
2023-05-09T22:10:21.610Z,997.96
2023-05-09T22:13:21.526Z,997.94
2023-05-09T22:16:21.474Z,997.93
2023-05-09T22:19:21.464Z,997.92
2023-05-09T22:22:21.508Z,997.89
2023-05-09T22:25:21.451Z,997.87
2023-05-09T22:28:21.454Z,997.86
2023-05-09T22:31:21.465Z,997.85
2023-05-09T22:34:21.462Z,997.82
2023-05-09T22:37:21.455Z,997.81
2023-05-09T22:40:21.463Z,997.78
2023-05-09T22:43:21.462Z,997.78
2023-05-09T22:46:21.525Z,997.79
2023-05-09T22:49:21.455Z,997.74
2023-05-09T22:52:21.470Z,997.76
2023-05-09T22:55:21.472Z,997.74
2023-05-09T22:58:21.473Z,997.73
2023-05-09T23:01:21.503Z,997.7
2023-05-09T23:04:21.471Z,997.66
2023-05-09T23:07:21.464Z,997.65
2023-05-09T23:10:21.475Z,997.62
2023-05-09T23:13:21.528Z,997.63
2023-05-09T23:16:21.531Z,997.59
2023-05-09T23:19:21.461Z,997.64
2023-05-09T23:22:21.527Z,997.59
2023-05-09T23:25:21.477Z,997.58
2023-05-09T23:28:21.461Z,997.5
2023-05-09T23:31:21.486Z,997.56
2023-05-09T23:34:21.474Z,997.55
2023-05-09T23:37:21.459Z,997.59
2023-05-09T23:40:21.451Z,997.64
2023-05-09T23:43:21.453Z,997.64
2023-05-09T23:46:21.496Z,997.74
2023-05-09T23:49:21.445Z,997.77
2023-05-09T23:52:21.444Z,997.82
2023-05-09T23:55:21.451Z,997.8
2023-05-09T23:58:21.432Z,997.81
